Time;durP1;ratioP1;P1;durP2;ratioP2;P2;SDS_P1;SDS_P2;PMS_P1;PMS_P2;Temp;Humidity;BMP_temperature;BMP_pressure;BME280_temperature;BME280_humidity;BME280_pressure;Samples;Min_cycle;Max_cycle;Signal;HPM_P1;HPM_P2
2022/03/30 00:00:46;;;;;;;15.85;8.70;;;6.80;78.40;;;;;;2051003;28;20528;-89
2022/03/30 00:01:48;;;;;;;15.95;8.55;;;6.70;78.40;;;;;;2050949;29;20062;-88
2022/03/30 00:02:49;;;;;;;14.43;7.90;;;6.80;78.60;;;;;;2075718;28;20416;-89
2022/03/30 00:03:50;;;;;;;13.98;8.32;;;6.80;78.60;;;;;;2076023;28;20026;-89
2022/03/30 00:04:50;;;;;;;13.35;7.65;;;6.80;78.50;;;;;;2061079;28;20565;-89
2022/03/30 00:05:51;;;;;;;14.35;8.88;;;6.80;78.60;;;;;;2061121;28;20035;-89
2022/03/30 00:06:52;;;;;;;13.63;8.45;;;6.80;78.60;;;;;;2050693;29;20030;-89
2022/03/30 00:07:56;;;;;;;17.15;8.38;;;6.80;78.60;;;;;;2051920;28;20143;-88
2022/03/30 00:08:56;;;;;;;15.90;8.48;;;6.80;78.60;;;;;;2068584;28;20027;-89
2022/03/30 00:10:00;;;;;;;15.80;8.38;;;6.70;78.60;;;;;;2063980;28;20546;-88
2022/03/30 00:11:01;;;;;;;14.27;8.02;;;6.80;78.60;;;;;;2066415;28;20062;-89
2022/03/30 00:12:01;;;;;;;13.75;8.77;;;6.80;78.60;;;;;;2073853;28;20065;-88
2022/03/30 00:13:03;;;;;;;15.07;8.57;;;6.70;78.60;;;;;;2070461;28;20543;-89
2022/03/30 00:14:04;;;;;;;16.55;8.65;;;6.70;78.70;;;;;;2065710;28;20034;-89
2022/03/30 00:15:05;;;;;;;14.38;8.60;;;6.70;78.70;;;;;;2063483;28;20602;-89
2022/03/30 00:16:07;;;;;;;13.10;7.40;;;6.70;78.70;;;;;;2058402;28;20054;-89
2022/03/30 00:17:08;;;;;;;15.18;8.00;;;6.70;78.80;;;;;;2070329;28;20026;-88
2022/03/30 00:18:09;;;;;;;14.65;8.15;;;6.70;78.70;;;;;;2080774;28;20037;-88
2022/03/30 00:19:09;;;;;;;13.80;8.02;;;6.70;78.80;;;;;;2052902;28;20034;-89
2022/03/30 00:20:10;;;;;;;14.85;8.13;;;6.70;78.80;;;;;;2058386;28;20038;-88
2022/03/30 00:21:11;;;;;;;14.98;8.15;;;6.70;78.80;;;;;;2065929;28;20022;-88
2022/03/30 00:22:12;;;;;;;14.32;8.00;;;6.70;78.80;;;;;;2058035;28;20066;-89
2022/03/30 00:23:12;;;;;;;15.43;8.38;;;6.70;78.80;;;;;;2065571;28;20030;-89
2022/03/30 00:24:13;;;;;;;16.05;8.25;;;6.70;78.80;;;;;;2074469;28;20043;-88
2022/03/30 00:25:14;;;;;;;14.93;7.93;;;6.70;78.90;;;;;;2074820;28;20045;-88
2022/03/30 00:26:15;;;;;;;14.38;8.32;;;6.70;78.90;;;;;;2074710;28;20033;-88
2022/03/30 00:27:16;;;;;;;15.43;8.70;;;6.70;79.00;;;;;;2057975;28;20035;-88
2022/03/30 00:28:16;;;;;;;13.73;7.95;;;6.70;79.00;;;;;;2056698;28;20027;-89
2022/03/30 00:29:17;;;;;;;13.48;8.27;;;6.70;79.00;;;;;;2066381;28;20027;-89
2022/03/30 00:30:20;;;;;;;16.83;8.40;;;6.70;79.10;;;;;;2072503;28;20040;-88
2022/03/30 00:31:21;;;;;;;14.55;7.90;;;6.70;79.10;;;;;;2073721;28;20034;-88
2022/03/30 00:32:22;;;;;;;13.20;7.78;;;6.70;79.70;;;;;;2057451;28;20085;-89
2022/03/30 00:33:23;;;;;;;14.48;8.05;;;6.70;79.10;;;;;;2041546;29;20023;-88
2022/03/30 00:34:24;;;;;;;13.45;8.02;;;6.70;79.10;;;;;;2041599;28;20073;-88
2022/03/30 00:35:24;;;;;;;14.13;8.38;;;6.60;79.10;;;;;;2058621;28;20577;-89
2022/03/30 00:36:25;;;;;;;13.75;7.53;;;6.60;79.10;;;;;;2074330;28;20026;-89
2022/03/30 00:37:25;;;;;;;16.15;8.35;;;6.60;79.20;;;;;;2074054;28;20026;-88
2022/03/30 00:38:26;;;;;;;17.08;8.13;;;6.60;79.20;;;;;;2065564;28;20061;-88
2022/03/30 00:39:27;;;;;;;13.10;7.85;;;6.60;79.20;;;;;;2058004;28;20031;-88
2022/03/30 00:40:28;;;;;;;16.95;8.30;;;6.60;79.30;;;;;;2057348;28;20592;-88
2022/03/30 00:41:28;;;;;;;14.43;8.45;;;6.60;79.30;;;;;;2057805;28;20509;-87
2022/03/30 00:42:29;;;;;;;13.30;8.43;;;6.60;79.30;;;;;;2055321;28;20042;-87
2022/03/30 00:43:30;;;;;;;14.50;8.55;;;6.60;79.40;;;;;;2053998;28;20030;-88
2022/03/30 00:44:30;;;;;;;14.55;8.15;;;6.60;79.40;;;;;;2065948;28;20539;-88
2022/03/30 00:45:32;;;;;;;13.75;8.13;;;6.60;79.50;;;;;;2065949;28;20381;-89
2022/03/30 00:46:32;;;;;;;16.95;9.27;;;6.50;79.50;;;;;;2065612;28;20082;-89
2022/03/30 00:47:33;;;;;;;16.27;8.50;;;6.50;79.50;;;;;;2049073;28;20562;-88
2022/03/30 00:48:35;;;;;;;16.58;8.45;;;6.50;79.60;;;;;;2065523;28;20029;-88
2022/03/30 00:49:35;;;;;;;15.70;8.40;;;6.50;79.70;;;;;;2060105;28;20030;-89
2022/03/30 00:50:36;;;;;;;15.75;9.02;;;6.50;79.60;;;;;;2065347;28;20019;-88
2022/03/30 00:51:37;;;;;;;16.15;8.70;;;6.50;79.70;;;;;;2071915;28;20112;-89
2022/03/30 00:52:38;;;;;;;19.45;8.77;;;6.50;79.70;;;;;;2068535;28;20033;-88
2022/03/30 00:53:39;;;;;;;13.60;8.55;;;6.40;79.70;;;;;;2065262;28;20489;-88
2022/03/30 00:54:45;;;;;;;14.23;8.30;;;6.50;79.80;;;;;;2062681;28;20018;-89
2022/03/30 00:55:46;;;;;;;16.20;8.90;;;6.40;79.80;;;;;;2058338;28;20062;-88
2022/03/30 00:56:47;;;;;;;14.32;8.35;;;6.40;79.90;;;;;;2049972;28;20206;-89
2022/03/30 00:57:48;;;;;;;16.80;8.93;;;6.40;79.80;;;;;;2066227;28;20141;-88
2022/03/30 00:58:50;;;;;;;15.95;8.35;;;6.40;79.90;;;;;;2074296;28;20030;-89
2022/03/30 00:59:51;;;;;;;14.73;8.15;;;6.40;79.90;;;;;;2074166;28;20157;-89
2022/03/30 01:00:52;;;;;;;14.70;8.38;;;6.40;80.00;;;;;;2073835;28;20029;-88
2022/03/30 01:01:53;;;;;;;16.85;8.77;;;6.40;79.90;;;;;;2073735;28;20396;-88
2022/03/30 01:02:54;;;;;;;13.95;8.35;;;6.40;80.00;;;;;;2073063;28;20030;-87
2022/03/30 01:03:55;;;;;;;14.40;8.23;;;6.40;80.00;;;;;;2062598;28;20037;-89
2022/03/30 01:04:55;;;;;;;15.75;8.20;;;6.40;80.00;;;;;;2065957;28;20117;-89
2022/03/30 01:05:56;;;;;;;13.10;7.95;;;6.40;80.00;;;;;;2051642;28;20031;-89
2022/03/30 01:06:57;;;;;;;12.93;8.02;;;6.30;80.00;;;;;;2050001;28;20055;-89
2022/03/30 01:07:58;;;;;;;13.27;7.97;;;6.30;80.00;;;;;;2057971;28;20081;-89
2022/03/30 01:08:59;;;;;;;14.90;7.93;;;6.30;80.10;;;;;;2049908;28;20031;-88
2022/03/30 01:10:01;;;;;;;12.93;7.70;;;6.30;80.10;;;;;;2050363;28;20505;-89
2022/03/30 01:11:02;;;;;;;13.10;7.82;;;6.30;80.10;;;;;;2057238;28;20030;-89
2022/03/30 01:12:03;;;;;;;14.43;7.70;;;6.30;80.10;;;;;;2057463;28;20485;-89
2022/03/30 01:13:05;;;;;;;16.15;7.93;;;6.30;80.10;;;;;;2057521;28;20049;-89
2022/03/30 01:14:06;;;;;;;16.45;8.05;;;6.30;80.10;;;;;;2047988;28;20498;-88
2022/03/30 01:15:09;;;;;;;15.82;7.97;;;6.30;80.10;;;;;;2049885;28;20037;-88
2022/03/30 01:16:10;;;;;;;13.63;7.35;;;6.30;80.10;;;;;;2058651;28;20027;-89
2022/03/30 01:17:10;;;;;;;14.77;7.68;;;6.30;80.20;;;;;;2057719;28;20050;-89
2022/03/30 01:18:11;;;;;;;13.30;7.05;;;6.30;80.20;;;;;;2049763;28;20035;-89
2022/03/30 01:19:12;;;;;;;12.65;6.97;;;6.30;80.20;;;;;;2065756;28;20029;-89
2022/03/30 01:20:18;;;;;;;11.90;6.97;;;6.30;80.20;;;;;;2057749;28;20491;-88
2022/03/30 01:21:18;;;;;;;12.95;6.80;;;6.30;80.20;;;;;;2058942;28;20030;-88
2022/03/30 01:22:19;;;;;;;11.95;7.03;;;6.30;80.10;;;;;;2065442;28;20026;-88
2022/03/30 01:23:20;;;;;;;12.23;6.45;;;6.30;80.10;;;;;;2048632;28;20027;-89
2022/03/30 01:24:21;;;;;;;12.23;6.95;;;6.40;80.20;;;;;;2047848;28;20508;-88
2022/03/30 01:25:22;;;;;;;15.75;7.20;;;6.40;80.20;;;;;;2065096;28;20113;-88
2022/03/30 01:26:23;;;;;;;12.43;7.00;;;6.40;80.20;;;;;;2073541;28;20048;-88
2022/03/30 01:27:24;;;;;;;12.00;7.50;;;6.40;80.20;;;;;;2057134;28;20045;-89
2022/03/30 01:28:28;;;;;;;14.73;7.60;;;6.40;80.20;;;;;;2049913;28;20028;-89
2022/03/30 01:32:26;;;;;;;11.73;6.78;;;6.40;80.10;;;;;;2073710;28;20511;-89
2022/03/30 01:33:27;;;;;;;15.13;7.30;;;6.40;80.10;;;;;;2065207;28;20065;-89
2022/03/30 01:34:28;;;;;;;12.90;6.90;;;6.40;80.10;;;;;;2057658;28;20042;-88
2022/03/30 01:35:29;;;;;;;12.70;6.80;;;6.40;80.10;;;;;;2049182;28;20030;-89
2022/03/30 01:36:30;;;;;;;12.30;6.68;;;6.30;80.10;;;;;;2057891;28;20081;-89
2022/03/30 01:37:32;;;;;;;11.68;6.95;;;6.30;80.20;;;;;;2049572;28;20078;-89
2022/03/30 01:38:32;;;;;;;12.13;6.70;;;6.30;80.20;;;;;;2056418;28;20050;-89
2022/03/30 01:39:33;;;;;;;14.55;7.07;;;6.30;80.30;;;;;;2067718;28;20061;-89
2022/03/30 01:40:35;;;;;;;11.43;7.03;;;6.30;80.40;;;;;;2065668;28;20030;-89
2022/03/30 01:41:35;;;;;;;12.75;7.00;;;6.20;80.40;;;;;;2054415;28;20478;-89
2022/03/30 01:42:36;;;;;;;12.48;6.80;;;6.20;80.50;;;;;;2064861;28;20081;-88
2022/03/30 01:43:37;;;;;;;14.07;6.80;;;6.20;80.50;;;;;;2059925;28;20039;-89
2022/03/30 01:44:38;;;;;;;12.00;6.97;;;6.20;80.60;;;;;;2057729;28;20094;-89
2022/03/30 01:45:39;;;;;;;14.02;7.03;;;6.20;81.30;;;;;;2049159;28;20046;-89
2022/03/30 01:46:39;;;;;;;15.10;7.28;;;6.20;80.70;;;;;;2065293;28;20069;-88
2022/03/30 01:47:40;;;;;;;13.88;6.93;;;6.20;80.80;;;;;;2065464;28;20046;-89
2022/03/30 01:48:41;;;;;;;14.25;7.28;;;6.20;80.80;;;;;;2057610;28;20054;-88
2022/03/30 01:49:42;;;;;;;13.57;7.50;;;6.10;80.80;;;;;;2057412;28;20053;-88
2022/03/30 01:50:43;;;;;;;12.68;6.78;;;6.10;80.90;;;;;;2056253;28;20018;-88
2022/03/30 01:51:44;;;;;;;12.85;7.07;;;6.10;80.90;;;;;;2065289;28;20032;-89
2022/03/30 01:52:45;;;;;;;12.68;7.13;;;6.10;81.00;;;;;;2049226;28;20026;-89
2022/03/30 01:53:46;;;;;;;11.43;7.03;;;6.00;81.00;;;;;;2041292;28;20126;-89
2022/03/30 01:54:48;;;;;;;15.88;7.43;;;6.00;81.00;;;;;;2041872;28;20031;-89
2022/03/30 01:55:48;;;;;;;12.05;6.97;;;6.10;81.20;;;;;;2071951;28;20034;-88
2022/03/30 01:56:51;;;;;;;12.10;6.70;;;6.00;81.70;;;;;;2064278;28;20043;-88
2022/03/30 01:57:52;;;;;;;11.32;7.10;;;6.00;81.20;;;;;;2065459;28;20022;-89
2022/03/30 01:58:52;;;;;;;12.35;6.72;;;6.00;81.20;;;;;;2049370;28;20031;-89
2022/03/30 01:59:53;;;;;;;12.82;6.97;;;6.00;81.20;;;;;;2040002;29;20072;-88
2022/03/30 02:00:53;;;;;;;11.90;7.18;;;6.00;81.20;;;;;;2047364;29;20031;-88
2022/03/30 02:01:54;;;;;;;10.93;6.40;;;5.90;81.20;;;;;;2049246;29;20023;-89
2022/03/30 02:02:55;;;;;;;11.52;7.55;;;6.00;81.90;;;;;;2047732;28;20537;-89
2022/03/30 02:03:56;;;;;;;14.27;7.25;;;5.90;81.30;;;;;;2065761;28;20066;-89
2022/03/30 02:04:57;;;;;;;14.43;7.18;;;5.90;81.30;;;;;;2068048;28;20044;-89
2022/03/30 02:05:58;;;;;;;15.55;7.45;;;5.90;81.40;;;;;;2053723;28;20074;-89
2022/03/30 02:06:58;;;;;;;14.80;7.18;;;5.90;81.40;;;;;;2060927;28;20019;-89
2022/03/30 02:07:59;;;;;;;12.32;6.70;;;5.90;81.50;;;;;;2065917;28;20175;-89
2022/03/30 02:09:00;;;;;;;13.20;7.07;;;5.80;81.40;;;;;;2065732;28;20050;-88
2022/03/30 02:10:01;;;;;;;12.50;6.95;;;5.80;81.50;;;;;;2067736;28;20023;-88
2022/03/30 02:11:02;;;;;;;14.73;7.68;;;5.80;81.50;;;;;;2065425;28;20058;-89
2022/03/30 02:12:04;;;;;;;14.48;7.47;;;5.80;81.50;;;;;;2065764;28;20026;-88
2022/03/30 02:13:05;;;;;;;13.30;7.35;;;5.80;81.60;;;;;;2063544;28;20027;-89
2022/03/30 02:14:05;;;;;;;14.55;7.50;;;5.70;81.50;;;;;;2064161;28;20023;-89
2022/03/30 02:15:08;;;;;;;14.25;7.53;;;5.80;81.70;;;;;;2057145;28;20038;-89
2022/03/30 02:16:08;;;;;;;14.70;7.35;;;5.80;81.70;;;;;;2052285;28;20058;-89
2022/03/30 02:17:09;;;;;;;11.70;7.18;;;5.70;82.30;;;;;;2055562;28;20023;-88
2022/03/30 02:18:10;;;;;;;13.05;7.30;;;5.70;81.80;;;;;;2065320;28;20022;-88
2022/03/30 02:19:11;;;;;;;13.90;7.55;;;5.70;81.80;;;;;;2057312;28;20034;-89
2022/03/30 02:20:11;;;;;;;12.80;7.32;;;5.70;82.40;;;;;;2053144;28;20096;-88
2022/03/30 02:21:13;;;;;;;12.88;7.38;;;5.70;81.90;;;;;;2041609;28;20079;-88
2022/03/30 02:22:13;;;;;;;12.77;7.00;;;5.70;81.90;;;;;;2049228;28;20027;-89
2022/03/30 02:23:14;;;;;;;12.57;6.90;;;5.60;81.90;;;;;;2051121;28;20026;-88
2022/03/30 02:24:15;;;;;;;13.07;7.13;;;5.60;81.90;;;;;;2048710;28;20379;-89
2022/03/30 02:25:15;;;;;;;13.32;6.82;;;5.60;82.00;;;;;;2056628;28;20058;-88
2022/03/30 02:26:17;;;;;;;14.73;7.55;;;5.60;82.00;;;;;;2063618;28;20102;-89
2022/03/30 02:27:20;;;;;;;14.98;7.00;;;5.60;82.10;;;;;;2065350;28;20602;-89
2022/03/30 02:28:21;;;;;;;13.07;7.47;;;5.60;82.10;;;;;;2057646;28;20035;-89
2022/03/30 02:29:22;;;;;;;18.10;7.65;;;5.60;82.10;;;;;;2040098;29;20439;-89
2022/03/30 02:30:22;;;;;;;14.10;7.63;;;5.60;82.20;;;;;;2049273;28;20430;-89
2022/03/30 02:31:23;;;;;;;11.77;7.13;;;5.60;82.20;;;;;;2065303;28;20054;-89
2022/03/30 02:32:24;;;;;;;13.18;7.13;;;5.50;82.20;;;;;;2065962;28;20405;-89
2022/03/30 02:33:25;;;;;;;12.23;6.78;;;5.50;82.20;;;;;;2057614;28;20062;-88
2022/03/30 02:34:26;;;;;;;13.90;7.03;;;5.50;82.30;;;;;;2064717;28;20096;-89
2022/03/30 02:35:27;;;;;;;12.50;7.45;;;5.50;82.40;;;;;;2072942;28;20096;-89
2022/03/30 02:36:27;;;;;;;13.55;6.95;;;5.50;82.90;;;;;;2056973;28;20580;-89
2022/03/30 02:37:28;;;;;;;11.05;6.47;;;5.50;82.30;;;;;;2041274;28;20055;-89
2022/03/30 02:38:29;;;;;;;17.00;7.60;;;5.50;82.30;;;;;;2057140;28;20339;-89
2022/03/30 02:39:29;;;;;;;14.02;7.18;;;5.50;82.40;;;;;;2057022;28;20058;-88
2022/03/30 02:40:30;;;;;;;12.68;6.82;;;5.50;82.40;;;;;;2064657;28;20121;-88
2022/03/30 02:41:31;;;;;;;13.05;7.05;;;5.50;82.40;;;;;;2073397;28;20022;-89
2022/03/30 02:42:31;;;;;;;16.33;7.57;;;5.50;82.50;;;;;;2065150;28;20022;-89
2022/03/30 02:43:33;;;;;;;16.25;7.38;;;5.50;82.50;;;;;;2061602;28;20105;-88
2022/03/30 02:44:35;;;;;;;13.25;7.28;;;5.50;82.50;;;;;;2063773;28;20024;-89
2022/03/30 02:45:38;;;;;;;13.63;7.00;;;5.50;83.20;;;;;;2056984;28;20490;-88
2022/03/30 02:46:39;;;;;;;14.45;7.78;;;5.40;82.50;;;;;;2072145;28;20034;-89
2022/03/30 02:48:59;;;;;;;14.40;7.18;;;5.40;82.50;;;;;;2067681;28;20483;-89
2022/03/30 02:49:59;;;;;;;14.50;7.50;;;5.40;82.50;;;;;;2068032;28;20081;-89
2022/03/30 02:51:02;;;;;;;12.50;6.90;;;5.40;82.60;;;;;;2053579;28;20031;-89
2022/03/30 02:52:04;;;;;;;12.80;6.57;;;5.40;82.60;;;;;;2057627;28;20069;-89
2022/03/30 02:53:04;;;;;;;12.43;7.18;;;5.40;82.70;;;;;;2049443;28;20367;-88
2022/03/30 02:54:05;;;;;;;13.40;7.28;;;5.40;82.70;;;;;;2065483;28;20065;-88
2022/03/30 02:55:07;;;;;;;11.98;7.18;;;5.30;82.70;;;;;;2063636;28;20038;-88
2022/03/30 02:56:07;;;;;;;13.82;7.80;;;5.30;82.80;;;;;;2056601;28;20034;-89
2022/03/30 02:57:08;;;;;;;11.85;6.63;;;5.30;82.80;;;;;;2049034;28;20472;-88
2022/03/30 02:58:10;;;;;;;11.50;6.80;;;5.30;82.90;;;;;;2065123;28;20104;-88
2022/03/30 02:59:11;;;;;;;11.98;6.55;;;5.30;82.90;;;;;;2065487;28;20496;-88
2022/03/30 03:00:12;;;;;;;12.98;6.28;;;5.30;82.90;;;;;;2073341;28;20026;-89
2022/03/30 03:01:13;;;;;;;13.27;7.30;;;5.30;82.90;;;;;;2056909;28;20023;-88
2022/03/30 03:02:14;;;;;;;13.27;6.75;;;5.30;82.90;;;;;;2057256;28;20035;-88
2022/03/30 03:03:15;;;;;;;12.70;7.05;;;5.30;82.90;;;;;;2056937;28;20027;-88
2022/03/30 03:04:16;;;;;;;12.77;6.80;;;5.30;83.50;;;;;;2057196;28;20026;-88
2022/03/30 03:05:16;;;;;;;11.30;7.18;;;5.30;83.00;;;;;;2071483;28;20494;-88
2022/03/30 03:06:17;;;;;;;13.82;7.35;;;5.30;83.00;;;;;;2064839;28;20153;-89
2022/03/30 03:07:18;;;;;;;11.13;6.57;;;5.30;83.00;;;;;;2055265;28;20026;-89
2022/03/30 03:08:19;;;;;;;11.20;6.43;;;5.30;83.00;;;;;;2056893;28;20038;-88
2022/03/30 03:09:19;;;;;;;14.35;7.25;;;5.30;83.10;;;;;;2056641;28;20023;-88
2022/03/30 03:10:20;;;;;;;13.07;6.80;;;5.30;83.10;;;;;;2073252;28;20076;-88
2022/03/30 03:11:21;;;;;;;12.82;6.93;;;5.30;83.10;;;;;;2057001;28;20078;-89
2022/03/30 03:12:21;;;;;;;13.57;6.63;;;5.30;83.10;;;;;;2057053;28;20026;-88
2022/03/30 03:13:22;;;;;;;12.25;6.93;;;5.30;83.10;;;;;;2056994;28;20046;-88
2022/03/30 03:14:23;;;;;;;13.02;6.82;;;5.30;83.10;;;;;;2049123;28;20031;-89
2022/03/30 03:15:24;;;;;;;12.60;6.95;;;5.30;83.10;;;;;;2063951;28;20659;-88
2022/03/30 03:16:25;;;;;;;14.95;7.00;;;5.20;83.10;;;;;;2064944;28;20042;-88
2022/03/30 03:17:25;;;;;;;13.00;6.70;;;5.20;83.20;;;;;;2072518;28;20045;-88
2022/03/30 03:18:26;;;;;;;14.15;7.97;;;5.20;83.20;;;;;;2073149;28;20485;-89
2022/03/30 03:19:28;;;;;;;13.32;7.28;;;5.20;83.30;;;;;;2073081;28;20033;-88
2022/03/30 03:20:30;;;;;;;11.45;7.03;;;5.20;83.30;;;;;;2048675;28;20051;-88
2022/03/30 03:21:31;;;;;;;13.25;7.07;;;5.20;83.30;;;;;;2057780;28;20501;-89
2022/03/30 03:22:31;;;;;;;12.93;7.03;;;5.20;83.40;;;;;;2064921;28;20034;-89
2022/03/30 03:23:32;;;;;;;14.70;7.28;;;5.10;83.40;;;;;;2064012;28;20058;-88
2022/03/30 03:24:33;;;;;;;12.18;7.30;;;5.10;83.40;;;;;;2057638;28;20035;-89
2022/03/30 03:25:33;;;;;;;15.35;7.15;;;5.10;83.40;;;;;;2055625;28;20484;-88
2022/03/30 03:26:34;;;;;;;12.18;6.68;;;5.10;83.40;;;;;;2056262;28;20048;-88
2022/03/30 03:27:35;;;;;;;10.45;6.30;;;5.10;83.50;;;;;;2057468;28;20045;-88
2022/03/30 03:28:35;;;;;;;12.27;6.80;;;5.10;83.50;;;;;;2064948;28;20019;-88
2022/03/30 03:29:36;;;;;;;11.52;6.50;;;5.10;83.50;;;;;;2056909;28;20027;-88
2022/03/30 03:30:37;;;;;;;10.95;6.43;;;5.10;84.10;;;;;;2048773;28;20493;-88
2022/03/30 03:31:38;;;;;;;12.68;7.13;;;5.10;83.50;;;;;;2041214;29;20039;-88
2022/03/30 03:32:39;;;;;;;14.85;7.00;;;5.10;83.60;;;;;;2041156;28;20039;-88
2022/03/30 03:33:39;;;;;;;11.48;6.70;;;5.10;83.60;;;;;;2049046;28;20140;-88
2022/03/30 03:34:40;;;;;;;11.52;7.00;;;5.10;83.70;;;;;;2081129;28;20057;-88
2022/03/30 03:35:41;;;;;;;12.93;7.13;;;5.10;83.70;;;;;;2063965;28;20089;-88
2022/03/30 03:36:42;;;;;;;14.38;7.68;;;5.00;83.70;;;;;;2063981;28;20081;-88
2022/03/30 03:37:43;;;;;;;13.82;7.07;;;5.00;83.70;;;;;;2072932;28;20029;-89
2022/03/30 03:38:44;;;;;;;15.32;7.35;;;5.00;83.70;;;;;;2063981;28;20428;-88
2022/03/30 03:39:45;;;;;;;13.98;7.30;;;5.00;83.80;;;;;;2047954;28;20118;-88
2022/03/30 03:40:46;;;;;;;12.68;7.15;;;5.00;83.80;;;;;;2057055;28;20023;-88
2022/03/30 03:41:46;;;;;;;13.45;7.03;;;4.90;83.80;;;;;;2064480;28;20039;-89
2022/03/30 03:42:48;;;;;;;11.23;7.22;;;4.90;83.90;;;;;;2057267;28;20058;-88
2022/03/30 03:43:50;;;;;;;15.68;8.02;;;4.90;84.00;;;;;;2065167;28;20035;-88
2022/03/30 03:44:51;;;;;;;17.75;8.80;;;4.80;84.00;;;;;;2072203;28;20566;-88
2022/03/30 03:45:51;;;;;;;16.08;7.78;;;4.80;84.70;;;;;;2064442;28;20049;-89
2022/03/30 03:46:54;;;;;;;14.02;7.90;;;4.80;84.80;;;;;;2061214;28;20031;-89
2022/03/30 03:47:55;;;;;;;13.63;7.95;;;4.80;84.30;;;;;;2056795;28;20039;-89
2022/03/30 03:48:56;;;;;;;14.40;7.28;;;4.80;84.30;;;;;;2070296;28;20037;-88
2022/03/30 03:49:56;;;;;;;12.68;7.85;;;4.70;84.30;;;;;;2080875;28;20034;-89
2022/03/30 03:50:57;;;;;;;14.80;8.13;;;4.70;84.30;;;;;;2078895;28;20046;-89
2022/03/30 03:51:58;;;;;;;14.00;7.60;;;4.70;84.40;;;;;;2048884;28;20583;-88
2022/03/30 03:52:58;;;;;;;13.25;7.28;;;4.70;84.40;;;;;;2059697;28;20055;-87
2022/03/30 03:53:59;;;;;;;11.88;6.97;;;4.70;84.50;;;;;;2063385;28;20037;-87
2022/03/30 03:55:00;;;;;;;13.35;7.72;;;4.60;84.50;;;;;;2054948;29;20055;-89
2022/03/30 03:56:03;;;;;;;13.40;7.47;;;4.60;84.60;;;;;;2047178;28;20124;-88
2022/03/30 03:57:04;;;;;;;13.13;6.90;;;4.60;84.60;;;;;;2056244;28;20556;-88
2022/03/30 03:58:06;;;;;;;14.25;7.32;;;4.70;84.60;;;;;;2056569;28;20027;-88
2022/03/30 03:59:06;;;;;;;13.82;7.07;;;4.70;84.60;;;;;;2041338;28;20027;-88
2022/03/30 04:00:09;;;;;;;14.27;7.22;;;4.70;84.60;;;;;;2042060;28;20407;-88
2022/03/30 04:01:10;;;;;;;13.02;7.45;;;4.70;84.60;;;;;;2058017;28;20039;-88
2022/03/30 04:02:11;;;;;;;14.27;7.05;;;4.70;84.60;;;;;;2049959;28;20038;-87
2022/03/30 04:03:11;;;;;;;13.05;7.53;;;4.70;84.60;;;;;;2062468;28;20141;-87
2022/03/30 04:04:12;;;;;;;12.60;7.28;;;4.70;84.60;;;;;;2065951;28;20030;-89
2022/03/30 04:05:14;;;;;;;11.68;6.97;;;4.70;84.50;;;;;;2056310;28;20030;-89
2022/03/30 04:06:14;;;;;;;14.90;7.57;;;4.70;84.60;;;;;;2064175;28;20185;-88
2022/03/30 04:07:15;;;;;;;12.05;6.90;;;4.70;84.60;;;;;;2040414;28;20514;-88
2022/03/30 04:08:16;;;;;;;12.15;6.88;;;4.70;84.60;;;;;;2033529;28;20028;-88
2022/03/30 04:09:16;;;;;;;13.23;7.45;;;4.70;84.60;;;;;;2048743;28;20126;-89
2022/03/30 04:10:17;;;;;;;12.93;7.20;;;4.70;84.60;;;;;;2056759;28;20031;-89
2022/03/30 04:11:18;;;;;;;14.00;7.05;;;4.70;84.60;;;;;;2048696;28;20066;-88
2022/03/30 04:12:19;;;;;;;13.57;7.15;;;4.60;84.50;;;;;;2050538;28;20786;-89
2022/03/30 04:13:19;;;;;;;12.25;7.15;;;4.70;84.60;;;;;;2048778;29;20019;-89
2022/03/30 04:14:20;;;;;;;12.50;7.32;;;4.60;84.60;;;;;;2048824;28;20087;-89
2022/03/30 04:15:21;;;;;;;13.40;7.47;;;4.60;84.70;;;;;;2064092;28;20469;-89
2022/03/30 04:16:22;;;;;;;14.07;7.82;;;4.60;84.70;;;;;;2055740;28;20481;-88
2022/03/30 04:17:23;;;;;;;14.45;7.80;;;4.60;84.70;;;;;;2056624;28;20015;-88
2022/03/30 04:18:24;;;;;;;12.48;7.55;;;4.60;84.70;;;;;;2048363;28;20122;-88
2022/03/30 04:19:25;;;;;;;11.90;7.25;;;4.60;84.70;;;;;;2048675;28;20031;-88
2022/03/30 04:20:26;;;;;;;15.77;7.72;;;4.60;84.70;;;;;;2048826;28;20519;-89
2022/03/30 04:21:26;;;;;;;12.20;6.97;;;4.60;84.70;;;;;;2056953;28;20151;-88
2022/03/30 04:22:28;;;;;;;13.65;7.05;;;4.60;84.70;;;;;;2066283;28;20027;-89
2022/03/30 04:23:28;;;;;;;13.05;6.88;;;4.60;84.70;;;;;;2072575;28;20029;-88
2022/03/30 04:24:29;;;;;;;11.95;6.95;;;4.70;84.80;;;;;;2064302;28;20514;-88
2022/03/30 04:25:30;;;;;;;12.73;7.25;;;4.60;84.70;;;;;;2052667;28;20115;-89
2022/03/30 04:26:30;;;;;;;14.48;7.63;;;4.60;84.70;;;;;;2044528;28;20104;-88
2022/03/30 04:27:31;;;;;;;12.57;7.00;;;4.60;84.70;;;;;;2055259;28;20122;-89
2022/03/30 04:28:32;;;;;;;12.25;7.32;;;4.70;85.40;;;;;;2040611;28;20079;-89
2022/03/30 04:29:33;;;;;;;13.93;7.60;;;4.60;84.70;;;;;;2057980;28;20051;-89
2022/03/30 04:30:34;;;;;;;13.88;7.07;;;4.70;84.80;;;;;;2058154;28;20517;-87
2022/03/30 04:31:34;;;;;;;12.18;7.25;;;4.60;84.70;;;;;;2057736;28;20027;-88
2022/03/30 04:32:35;;;;;;;13.98;7.57;;;4.60;84.80;;;;;;2042061;28;20035;-88
2022/03/30 04:33:36;;;;;;;13.65;7.93;;;4.60;84.80;;;;;;2049634;28;20118;-88
2022/03/30 04:34:37;;;;;;;13.40;7.55;;;4.60;84.80;;;;;;2065811;28;20030;-88
2022/03/30 04:35:38;;;;;;;14.70;7.63;;;4.60;84.80;;;;;;2056507;28;20081;-89
2022/03/30 04:36:39;;;;;;;12.95;7.20;;;4.60;84.90;;;;;;2065481;28;20073;-89
2022/03/30 04:37:39;;;;;;;13.82;7.30;;;4.60;84.90;;;;;;2068309;28;20395;-89
2022/03/30 04:38:40;;;;;;;12.57;7.15;;;4.60;84.90;;;;;;2050038;28;20035;-88
2022/03/30 04:39:41;;;;;;;13.18;7.45;;;4.60;84.90;;;;;;2053753;28;20110;-89
2022/03/30 04:40:41;;;;;;;11.98;7.15;;;4.50;84.90;;;;;;2057413;28;20054;-88
2022/03/30 04:41:42;;;;;;;14.15;7.15;;;4.60;85.00;;;;;;2048100;28;20031;-89
2022/03/30 04:42:43;;;;;;;14.07;7.97;;;4.60;85.00;;;;;;2054120;28;20031;-89
2022/03/30 04:43:43;;;;;;;12.00;7.03;;;4.50;85.00;;;;;;2062483;28;20078;-89
2022/03/30 04:44:44;;;;;;;14.27;7.85;;;4.50;85.00;;;;;;2068561;28;20046;-90
2022/03/30 04:45:44;;;;;;;14.85;7.80;;;4.50;85.00;;;;;;2056692;28;20035;-89
2022/03/30 04:46:45;;;;;;;13.57;7.45;;;4.50;85.00;;;;;;2055750;28;20031;-88
2022/03/30 04:47:46;;;;;;;13.52;7.68;;;4.60;85.00;;;;;;2064756;28;20115;-89
2022/03/30 04:48:46;;;;;;;12.27;6.82;;;4.50;85.00;;;;;;2057316;28;20113;-89
2022/03/30 04:49:47;;;;;;;13.73;7.85;;;4.50;85.00;;;;;;2050003;28;20031;-88
2022/03/30 04:50:50;;;;;;;13.82;7.93;;;4.50;85.10;;;;;;2049764;28;20397;-89
2022/03/30 04:51:50;;;;;;;13.02;7.35;;;4.50;85.10;;;;;;2067902;28;20026;-89
2022/03/30 04:52:52;;;;;;;12.05;7.15;;;4.50;85.10;;;;;;2066055;28;20027;-89
2022/03/30 04:53:53;;;;;;;12.55;7.55;;;4.50;85.20;;;;;;2057256;28;20026;-88
2022/03/30 04:54:53;;;;;;;11.73;7.35;;;4.50;85.20;;;;;;2049444;28;20031;-88
2022/03/30 04:55:54;;;;;;;14.02;8.00;;;4.50;85.20;;;;;;2062052;28;20492;-88
2022/03/30 04:56:55;;;;;;;13.07;7.43;;;4.50;85.20;;;;;;2077428;28;20523;-88
2022/03/30 04:57:55;;;;;;;13.32;7.63;;;4.40;85.20;;;;;;2065637;28;20065;-89
2022/03/30 04:58:56;;;;;;;16.77;8.43;;;4.40;85.30;;;;;;2057086;28;20062;-89
2022/03/30 04:59:57;;;;;;;13.27;7.38;;;4.40;85.30;;;;;;2058018;28;20027;-91
2022/03/30 05:00:57;;;;;;;14.45;7.80;;;4.40;85.30;;;;;;2063892;28;20035;-88
2022/03/30 05:01:59;;;;;;;13.60;7.10;;;4.40;85.40;;;;;;2056942;28;20703;-89
2022/03/30 05:02:59;;;;;;;13.38;7.80;;;4.40;85.40;;;;;;2065728;28;20034;-88
2022/03/30 05:04:00;;;;;;;13.30;7.85;;;4.40;85.40;;;;;;2065613;28;20054;-89
2022/03/30 05:05:01;;;;;;;12.55;7.65;;;4.40;85.30;;;;;;2064050;28;20066;-86
2022/03/30 05:06:02;;;;;;;15.00;7.65;;;4.40;85.40;;;;;;2062507;28;20460;-87
2022/03/30 05:07:02;;;;;;;13.45;7.45;;;4.40;85.30;;;;;;2071066;28;20041;-88
2022/03/30 05:08:03;;;;;;;12.77;7.50;;;4.40;85.30;;;;;;2065830;28;20417;-88
2022/03/30 05:09:04;;;;;;;11.98;7.47;;;4.40;85.40;;;;;;2071611;28;20416;-88
2022/03/30 05:10:08;;;;;;;13.48;7.10;;;4.40;85.40;;;;;;2065838;28;20026;-87
2022/03/30 05:11:09;;;;;;;14.55;7.95;;;4.40;85.40;;;;;;2073188;28;20108;-87
2022/03/30 05:12:10;;;;;;;13.38;8.10;;;4.40;85.40;;;;;;2065539;28;20034;-88
2022/03/30 05:13:10;;;;;;;14.80;8.13;;;4.40;85.40;;;;;;2073581;28;20025;-88
2022/03/30 05:14:11;;;;;;;11.48;7.50;;;4.40;85.40;;;;;;2072650;28;20048;-88
2022/03/30 05:15:12;;;;;;;15.15;8.13;;;4.40;85.30;;;;;;2065619;28;20496;-88
2022/03/30 05:16:13;;;;;;;12.15;7.28;;;4.40;85.30;;;;;;2072738;28;20041;-87
2022/03/30 05:17:13;;;;;;;13.52;7.75;;;4.40;85.30;;;;;;2064886;28;20146;-87
2022/03/30 05:18:14;;;;;;;12.88;7.72;;;4.40;85.30;;;;;;2065882;28;20038;-87
2022/03/30 05:19:15;;;;;;;13.75;7.57;;;4.40;85.30;;;;;;2072145;28;20041;-87
2022/03/30 05:20:17;;;;;;;13.30;7.88;;;4.40;85.30;;;;;;2065308;28;20038;-88
2022/03/30 05:21:18;;;;;;;13.82;8.48;;;4.40;85.40;;;;;;2057944;28;20027;-88
2022/03/30 05:22:18;;;;;;;13.13;7.35;;;4.40;85.30;;;;;;2057694;28;20089;-88